Time;durP1;ratioP1;P1;durP2;ratioP2;P2;SDS_P1;SDS_P2;PMS_P1;PMS_P2;Temp;Humidity;BMP_temperature;BMP_pressure;BME280_temperature;BME280_humidity;BME280_pressure;Samples;Min_cycle;Max_cycle;Signal;HPM_P1;HPM_P2
2021/03/27 00:02:19;;;;;;;7.80;6.55;;;9.40;99.90;;;;;;4966232;28;20198;-75
2021/03/27 00:05:12;;;;;;;8.45;7.47;;;9.40;99.90;;;;;;4952869;28;20081;-75
2021/03/27 00:07:56;;;;;;;7.45;6.55;;;9.50;99.90;;;;;;4992831;28;20041;-75
2021/03/27 00:10:28;;;;;;;9.25;6.40;;;9.50;99.90;;;;;;5025174;28;20021;-75
2021/03/27 00:13:03;;;;;;;8.00;7.07;;;9.50;99.90;;;;;;5021809;28;20045;-75
2021/03/27 00:15:33;;;;;;;7.70;6.03;;;9.50;99.90;;;;;;5021946;28;20041;-75
2021/03/27 00:18:11;;;;;;;6.53;5.43;;;9.50;99.90;;;;;;5020734;28;20034;-75
2021/03/27 00:20:48;;;;;;;10.88;6.35;;;9.50;99.90;;;;;;5021067;28;20034;-75
2021/03/27 00:23:26;;;;;;;6.85;5.72;;;9.50;99.90;;;;;;5021190;28;20061;-75
2021/03/27 00:25:59;;;;;;;9.30;6.35;;;9.50;99.90;;;;;;5022547;28;20359;-75
2021/03/27 00:28:39;;;;;;;7.30;6.13;;;9.40;99.90;;;;;;5021432;28;20030;-75
2021/03/27 00:31:16;;;;;;;6.60;5.97;;;9.40;99.90;;;;;;5024464;28;20046;-75
2021/03/27 00:33:52;;;;;;;6.13;5.53;;;9.40;99.90;;;;;;5020767;28;20125;-75
2021/03/27 00:36:24;;;;;;;7.95;5.20;;;9.40;99.90;;;;;;5020620;28;20026;-75
2021/03/27 00:39:01;;;;;;;9.38;6.00;;;9.40;99.90;;;;;;5024159;28;20029;-75
2021/03/27 00:41:50;;;;;;;6.93;5.20;;;9.40;99.90;;;;;;5021227;28;20026;-75
2021/03/27 00:44:18;;;;;;;5.25;4.47;;;9.40;99.90;;;;;;5022466;28;20469;-75
2021/03/27 00:46:45;;;;;;;9.82;5.05;;;9.40;99.90;;;;;;5020564;28;20022;-75
2021/03/27 00:49:32;;;;;;;4.20;3.80;;;9.40;99.90;;;;;;5021316;28;20424;-75
2021/03/27 00:52:03;;;;;;;6.40;4.35;;;9.30;99.90;;;;;;5021346;28;20025;-75
2021/03/27 00:54:55;;;;;;;8.35;4.35;;;9.30;99.90;;;;;;5021672;28;20030;-75
2021/03/27 00:57:33;;;;;;;4.95;3.85;;;9.40;99.90;;;;;;5022353;28;20025;-75
2021/03/27 01:00:19;;;;;;;5.28;3.88;;;9.40;99.90;;;;;;5022349;28;20087;-75
2021/03/27 01:02:51;;;;;;;6.53;4.18;;;9.30;99.90;;;;;;5018007;28;20034;-75
2021/03/27 01:05:21;;;;;;;9.32;3.88;;;9.30;99.90;;;;;;5020165;28;20030;-75
2021/03/27 01:07:49;;;;;;;8.10;4.13;;;9.40;98.70;;;;;;5021746;28;20017;-75
2021/03/27 01:10:24;;;;;;;7.00;3.67;;;9.30;99.80;;;;;;5023198;28;20057;-75
2021/03/27 01:12:53;;;;;;;7.15;3.20;;;9.40;98.40;;;;;;5021273;28;20026;-75
2021/03/27 01:15:31;;;;;;;6.07;3.45;;;9.30;98.80;;;;;;5019662;28;20022;-75
2021/03/27 01:18:01;;;;;;;7.40;3.45;;;9.30;98.70;;;;;;5022403;28;20096;-75
2021/03/27 01:20:38;;;;;;;7.85;3.08;;;9.30;99.00;;;;;;5020495;28;20029;-75
2021/03/27 01:23:05;;;;;;;7.10;3.92;;;9.30;98.30;;;;;;5020510;28;20025;-75
2021/03/27 01:25:34;;;;;;;6.45;3.25;;;9.20;98.90;;;;;;5020600;28;20026;-75
2021/03/27 01:28:35;;;;;;;6.53;2.60;;;9.20;97.80;;;;;;5021933;28;20041;-75
2021/03/27 01:31:27;;;;;;;3.60;3.08;;;9.30;97.80;;;;;;4960920;28;20440;-75
2021/03/27 01:34:02;;;;;;;4.75;2.22;;;9.20;99.70;;;;;;4961576;28;20122;-75
2021/03/27 01:36:57;;;;;;;3.42;2.85;;;9.20;98.40;;;;;;4961709;28;20086;-75
2021/03/27 01:39:30;;;;;;;4.68;2.67;;;9.20;98.40;;;;;;4960501;28;20165;-75
2021/03/27 01:42:09;;;;;;;4.18;2.53;;;9.20;97.70;;;;;;4960827;28;20039;-75
2021/03/27 01:44:46;;;;;;;5.03;2.55;;;9.20;97.80;;;;;;4960216;28;20508;-75
2021/03/27 01:47:39;;;;;;;4.38;2.58;;;9.30;97.30;;;;;;4961539;28;20027;-75
2021/03/27 01:50:21;;;;;;;3.45;2.40;;;9.30;98.60;;;;;;4959443;28;20033;-75
2021/03/27 01:53:04;;;;;;;4.85;2.33;;;9.30;98.60;;;;;;4959317;28;20027;-75
2021/03/27 01:55:49;;;;;;;7.05;2.33;;;9.30;98.90;;;;;;4961504;28;20499;-75
2021/03/27 01:58:29;;;;;;;7.45;3.97;;;9.30;99.90;;;;;;4961465;28;20045;-75
2021/03/27 02:01:18;;;;;;;5.43;3.42;;;9.30;99.50;;;;;;4961333;28;20039;-75
2021/03/27 02:03:53;;;;;;;3.80;3.00;;;9.20;99.90;;;;;;4955936;28;20047;-75
2021/03/27 02:06:33;;;;;;;3.05;2.67;;;9.20;99.90;;;;;;4962756;28;20049;-75
2021/03/27 02:09:20;;;;;;;3.47;2.92;;;9.00;99.90;;;;;;5013725;28;20095;-75
2021/03/27 02:12:03;;;;;;;7.25;2.60;;;9.00;99.90;;;;;;5020070;28;20507;-75
2021/03/27 02:14:47;;;;;;;3.17;2.63;;;9.00;99.90;;;;;;5018805;28;20018;-75
2021/03/27 02:17:16;;;;;;;3.53;2.60;;;9.00;99.90;;;;;;5020903;28;20079;-75
2021/03/27 02:19:48;;;;;;;3.83;2.75;;;9.00;99.90;;;;;;5019364;28;20029;-75
2021/03/27 02:22:37;;;;;;;7.90;2.78;;;9.00;99.90;;;;;;5021053;28;20033;-75
2021/03/27 02:25:24;;;;;;;5.63;2.90;;;8.90;99.90;;;;;;5019061;28;20117;-76
2021/03/27 02:28:10;;;;;;;5.30;2.97;;;8.80;99.90;;;;;;5019996;28;20036;-75
2021/03/27 02:30:55;;;;;;;8.35;3.20;;;8.70;99.90;;;;;;5022390;28;20053;-75
2021/03/27 02:33:45;;;;;;;2.58;2.20;;;8.80;99.90;;;;;;5024977;28;20010;-75
2021/03/27 02:36:18;;;;;;;2.47;1.90;;;8.70;99.90;;;;;;5024370;28;20029;-75
2021/03/27 02:38:53;;;;;;;4.18;2.03;;;8.80;99.90;;;;;;5025859;28;20032;-75
2021/03/27 02:41:29;;;;;;;2.42;2.22;;;8.80;99.90;;;;;;5021400;28;20021;-75
2021/03/27 02:44:06;;;;;;;3.45;1.77;;;8.70;99.90;;;;;;5024237;28;20022;-75
2021/03/27 02:46:46;;;;;;;4.03;2.30;;;8.70;99.90;;;;;;5024241;28;20437;-75
2021/03/27 02:49:24;;;;;;;3.97;2.20;;;8.80;99.90;;;;;;5024262;28;20108;-75
2021/03/27 02:52:14;;;;;;;4.80;3.00;;;8.90;99.90;;;;;;5023628;28;20091;-75
2021/03/27 02:54:52;;;;;;;2.35;1.80;;;8.90;99.90;;;;;;5024966;28;20021;-75
2021/03/27 02:57:31;;;;;;;3.15;1.98;;;8.90;99.90;;;;;;5024322;28;20335;-75
2021/03/27 03:00:19;;;;;;;4.03;2.17;;;8.80;99.90;;;;;;5024507;28;20029;-75
2021/03/27 03:02:52;;;;;;;5.40;2.15;;;8.90;99.90;;;;;;5023164;28;20018;-75
2021/03/27 03:05:39;;;;;;;5.50;2.53;;;8.90;99.90;;;;;;5022474;28;20053;-75
2021/03/27 03:08:31;;;;;;;4.93;2.42;;;8.90;99.90;;;;;;5023104;28;20026;-75
2021/03/27 03:11:11;;;;;;;3.17;2.72;;;8.90;99.90;;;;;;5024052;28;20076;-75
2021/03/27 03:13:41;;;;;;;;;;;8.90;99.90;;;;;;5024741;28;20061;-75
2021/03/27 03:16:36;;;;;;;4.20;2.43;;;8.80;99.90;;;;;;5021496;28;19905;-75
2021/03/27 03:19:23;;;;;;;9.93;3.38;;;8.60;99.90;;;;;;5024266;28;20628;-75
2021/03/27 03:22:22;;;;;;;5.25;1.98;;;8.60;99.90;;;;;;5023151;28;20100;-75
2021/03/27 03:25:00;;;;;;;2.40;2.15;;;8.60;99.90;;;;;;5004748;28;20121;-75
2021/03/27 03:27:53;;;;;;;2.22;1.90;;;8.40;99.90;;;;;;5022346;28;20029;-75
2021/03/27 03:30:28;;;;;;;6.75;1.88;;;8.40;99.90;;;;;;5023822;28;20404;-75
2021/03/27 03:33:17;;;;;;;2.83;2.08;;;8.40;99.90;;;;;;5023557;28;20068;-75
2021/03/27 03:35:55;;;;;;;3.50;1.75;;;8.60;99.90;;;;;;5022272;28;20014;-75
2021/03/27 03:38:39;;;;;;;2.50;1.65;;;8.60;99.90;;;;;;5023728;28;20492;-75
2021/03/27 03:41:29;;;;;;;5.88;2.40;;;8.70;99.90;;;;;;5021854;28;20029;-75
2021/03/27 03:44:09;;;;;;;4.80;2.25;;;8.80;99.90;;;;;;5022678;28;20511;-75
2021/03/27 03:46:35;;;;;;;;;;;8.80;99.90;;;;;;5024323;28;20492;-75
2021/03/27 03:49:42;;;;;;;4.40;2.10;;;8.80;99.90;;;;;;5021721;28;20008;-75
2021/03/27 03:52:14;;;;;;;2.80;2.08;;;8.90;99.90;;;;;;4982732;28;20042;-75
2021/03/27 03:54:42;;;;;;;5.80;2.47;;;8.80;99.90;;;;;;4979888;28;20034;-75
2021/03/27 03:57:31;;;;;;;4.45;1.95;;;8.90;99.90;;;;;;4964932;28;20030;-75
2021/03/27 04:00:17;;;;;;;3.35;1.92;;;8.60;99.90;;;;;;4981936;28;20042;-75
2021/03/27 04:03:07;;;;;;;3.58;3.05;;;8.60;99.90;;;;;;4982618;28;20105;-75
2021/03/27 04:05:54;;;;;;;4.75;2.53;;;8.70;99.90;;;;;;4981329;28;20069;-75
2021/03/27 04:08:27;;;;;;;5.55;2.35;;;8.70;99.90;;;;;;4982682;28;20030;-75
2021/03/27 04:10:57;;;;;;;3.15;2.50;;;8.70;99.90;;;;;;4981056;28;20027;-75
2021/03/27 04:13:49;;;;;;;5.55;3.15;;;8.70;99.90;;;;;;4979592;28;20034;-75
2021/03/27 04:16:20;;;;;;;4.03;2.85;;;8.70;99.90;;;;;;4965130;28;20117;-75
2021/03/27 04:19:11;;;;;;;3.13;2.63;;;8.50;99.90;;;;;;4982427;28;20023;-75
2021/03/27 04:21:53;;;;;;;3.60;2.40;;;8.70;99.90;;;;;;4982301;28;20046;-76
2021/03/27 04:24:32;;;;;;;3.63;1.88;;;8.80;99.90;;;;;;4981528;28;20035;-75
2021/03/27 04:27:04;;;;;;;4.60;2.35;;;8.90;99.90;;;;;;4979585;28;20131;-75
2021/03/27 04:29:32;;;;;;;4.35;2.17;;;8.90;99.90;;;;;;5012208;28;20461;-75
2021/03/27 04:32:30;;;;;;;5.18;2.97;;;8.80;99.90;;;;;;5022968;28;20448;-75
2021/03/27 04:35:15;;;;;;;7.45;2.95;;;8.80;99.90;;;;;;5022798;28;20022;-75
2021/03/27 04:38:06;;;;;;;6.45;2.60;;;8.80;99.90;;;;;;5023362;28;20072;-75
2021/03/27 04:40:45;;;;;;;6.63;3.08;;;8.80;99.90;;;;;;5024357;28;20065;-75
2021/03/27 04:43:22;;;;;;;7.15;2.92;;;8.50;99.90;;;;;;5021917;28;20080;-75
2021/03/27 04:46:03;;;;;;;7.18;3.22;;;8.50;99.90;;;;;;5021308;28;20026;-75
2021/03/27 04:48:36;;;;;;;5.75;2.88;;;8.60;99.90;;;;;;5021247;28;20028;-75
2021/03/27 04:51:25;;;;;;;9.20;3.17;;;8.50;99.90;;;;;;5020578;28;20104;-75
2021/03/27 04:54:11;;;;;;;11.85;4.03;;;8.60;99.90;;;;;;5024637;28;20427;-75
2021/03/27 04:56:48;;;;;;;7.35;2.95;;;8.50;99.90;;;;;;5020810;28;20383;-75
2021/03/27 04:59:16;;;;;;;7.70;3.03;;;8.40;99.90;;;;;;5021934;28;20021;-75
2021/03/27 05:01:56;;;;;;;11.75;3.35;;;8.30;99.90;;;;;;5020270;28;20022;-74
2021/03/27 05:04:50;;;;;;;6.20;3.38;;;8.20;99.90;;;;;;5026409;28;20033;-75
2021/03/27 05:07:59;;;;;;;9.65;3.58;;;8.10;99.90;;;;;;5032123;28;20045;-75
2021/03/27 05:10:52;;;;;;;6.97;3.20;;;8.20;99.90;;;;;;4954774;28;20029;-75
2021/03/27 05:13:34;;;;;;;5.10;3.47;;;8.20;99.90;;;;;;4971122;28;20042;-75
2021/03/27 05:16:10;;;;;;;9.57;4.57;;;8.10;99.90;;;;;;4970752;28;20035;-75
2021/03/27 05:18:51;;;;;;;5.72;3.55;;;8.10;99.90;;;;;;4970281;28;20046;-75
2021/03/27 05:21:28;;;;;;;5.45;3.67;;;8.10;99.90;;;;;;4971404;28;20558;-75
2021/03/27 05:24:22;;;;;;;7.70;4.05;;;8.10;99.90;;;;;;4971160;28;20023;-75
2021/03/27 05:27:15;;;;;;;7.43;3.40;;;8.20;99.90;;;;;;4970958;28;20113;-75
2021/03/27 05:30:08;;;;;;;5.95;3.60;;;8.10;99.90;;;;;;4970798;28;20113;-75
2021/03/27 05:33:15;;;;;;;8.35;4.10;;;8.10;99.90;;;;;;4971099;28;20031;-75
2021/03/27 05:35:42;;;;;;;11.90;4.90;;;8.10;99.90;;;;;;4951453;28;20035;-75
2021/03/27 05:38:15;;;;;;;8.57;4.13;;;8.10;99.90;;;;;;4934558;28;20396;-75
2021/03/27 05:41:16;;;;;;;6.95;3.83;;;8.10;99.90;;;;;;4970335;28;20533;-75
2021/03/27 05:44:02;;;;;;;7.63;3.65;;;8.20;99.90;;;;;;5009860;28;20078;-75
2021/03/27 05:46:28;;;;;;;6.15;3.63;;;8.20;99.90;;;;;;5009853;28;20632;-75
2021/03/27 05:49:41;;;;;;;4.78;2.30;;;8.10;99.90;;;;;;5009849;28;20112;-75
2021/03/27 05:52:30;;;;;;;6.93;2.83;;;8.00;99.90;;;;;;4929778;29;20028;-75
2021/03/27 05:55:18;;;;;;;3.25;2.13;;;8.00;99.90;;;;;;4930480;29;20012;-75
2021/03/27 05:58:28;;;;;;;8.77;2.00;;;8.00;99.90;;;;;;4929307;29;20039;-75
2021/03/27 06:00:56;;;;;;;8.27;2.42;;;7.80;99.90;;;;;;4892221;29;20089;-75
2021/03/27 06:03:50;;;;;;;9.13;2.53;;;7.70;99.90;;;;;;4893842;29;20119;-75
2021/03/27 06:06:37;;;;;;;9.77;3.00;;;7.40;99.90;;;;;;4894252;29;20153;-75
2021/03/27 06:09:40;;;;;;;7.35;2.45;;;7.00;99.90;;;;;;4897509;29;20231;-75
2021/03/27 06:12:34;;;;;;;7.18;2.45;;;7.00;99.90;;;;;;4866834;29;20123;-75
2021/03/27 06:15:30;;;;;;;6.10;2.72;;;7.00;99.90;;;;;;4894325;29;20072;-75
2021/03/27 06:18:23;;;;;;;9.93;3.25;;;6.90;99.90;;;;;;4882057;29;20596;-75
2021/03/27 06:21:14;;;;;;;7.97;2.25;;;7.10;99.90;;;;;;4896447;29;20417;-75
2021/03/27 06:23:57;;;;;;;22.73;11.15;;;7.30;99.90;;;;;;4958335;28;20535;-75
2021/03/27 06:26:32;;;;;;;6.72;2.20;;;7.30;99.90;;;;;;4958924;28;20066;-75
2021/03/27 06:29:16;;;;;;;8.93;3.17;;;7.20;99.90;;;;;;4954881;29;20039;-74
2021/03/27 06:31:54;;;;;;;8.05;2.80;;;6.90;99.90;;;;;;4967444;28;20062;-75
2021/03/27 06:34:51;;;;;;;7.13;2.30;;;7.10;99.90;;;;;;4974083;28;20649;-75
2021/03/27 06:37:30;;;;;;;8.68;2.35;;;7.10;99.90;;;;;;4998911;28;20112;-75
2021/03/27 06:40:34;;;;;;;10.33;2.60;;;7.10;99.90;;;;;;5035100;28;20034;-75
2021/03/27 06:43:29;;;;;;;5.03;2.15;;;7.10;99.90;;;;;;4984185;28;20033;-75
2021/03/27 06:46:06;;;;;;;9.52;2.72;;;7.10;99.90;;;;;;4955125;29;20482;-74
2021/03/27 06:48:38;;;;;;;10.73;2.55;;;7.10;99.90;;;;;;4955053;29;20107;-75
2021/03/27 06:51:27;;;;;;;6.50;2.63;;;6.90;99.90;;;;;;4963458;28;20043;-75
2021/03/27 06:54:13;;;;;;;8.68;2.15;;;7.00;99.90;;;;;;4955704;28;20063;-75
2021/03/27 06:57:00;;;;;;;10.85;3.63;;;6.90;99.90;;;;;;4968334;28;20074;-74
2021/03/27 07:00:04;;;;;;;8.18;2.78;;;7.10;99.90;;;;;;4965473;28;20077;-75
2021/03/27 07:03:03;;;;;;;7.60;2.38;;;7.20;99.90;;;;;;4929299;29;20051;-75
2021/03/27 07:05:48;;;;;;;4.43;1.83;;;7.30;99.90;;;;;;4929209;29;20119;-75
2021/03/27 07:08:47;;;;;;;13.07;3.30;;;7.30;99.90;;;;;;4934619;29;20044;-75
2021/03/27 07:11:50;;;;;;;8.63;2.45;;;7.30;99.90;;;;;;4934939;29;20164;-75
2021/03/27 07:14:39;;;;;;;5.53;2.25;;;7.50;99.90;;;;;;4941264;29;20095;-75
2021/03/27 07:17:33;;;;;;;8.20;2.60;;;7.60;99.90;;;;;;4934249;29;20054;-75
2021/03/27 07:20:29;;;;;;;5.03;2.88;;;7.60;99.90;;;;;;4933789;29;20090;-75
2021/03/27 07:23:20;;;;;;;8.43;3.00;;;7.30;99.90;;;;;;4955440;28;20046;-74
2021/03/27 07:26:12;;;;;;;10.20;2.70;;;7.20;99.90;;;;;;4956886;28;20137;-75
2021/03/27 07:28:51;;;;;;;11.82;2.50;;;6.80;99.90;;;;;;4974050;28;20133;-75
2021/03/27 07:31:44;;;;;;;6.82;2.90;;;6.70;99.90;;;;;;4970862;28;20043;-75
2021/03/27 07:34:50;;;;;;;6.38;2.30;;;6.80;99.90;;;;;;4972341;28;20530;-74
2021/03/27 07:37:34;;;;;;;6.40;2.78;;;6.90;99.90;;;;;;4957495;28;20418;-73
2021/03/27 07:40:12;;;;;;;8.13;2.42;;;7.10;99.90;;;;;;5014462;28;20072;-73
2021/03/27 07:43:16;;;;;;;6.93;2.60;;;7.20;99.90;;;;;;5032969;28;20021;-73
2021/03/27 07:46:03;;;;;;;9.27;2.92;;;7.20;99.90;;;;;;5010933;28;20085;-73
2021/03/27 07:49:01;;;;;;;7.35;3.22;;;7.30;99.90;;;;;;5024242;28;20478;-73
2021/03/27 07:51:45;;;;;;;7.55;2.45;;;7.50;99.90;;;;;;5030873;28;20067;-73
2021/03/27 07:54:47;;;;;;;7.45;2.80;;;7.20;99.90;;;;;;5023467;28;20049;-79
2021/03/27 07:57:15;;;;;;;9.48;3.30;;;7.00;99.90;;;;;;5021723;28;20124;-74
2021/03/27 08:00:13;;;;;;;7.68;4.15;;;7.00;99.90;;;;;;5028499;28;20032;-76
2021/03/27 08:03:00;;;;;;;8.73;2.30;;;7.30;99.90;;;;;;5033209;28;20049;-74
2021/03/27 08:05:57;;;;;;;14.02;2.58;;;7.20;99.90;;;;;;5033944;28;20550;-75
2021/03/27 08:08:26;;;;;;;11.02;3.03;;;7.00;99.90;;;;;;5034053;28;20048;-74
2021/03/27 08:11:06;;;;;;;10.13;2.75;;;6.90;99.90;;;;;;5034135;28;20083;-74
2021/03/27 08:14:07;;;;;;;7.07;2.38;;;7.00;99.90;;;;;;5033739;28;20025;-75
2021/03/27 08:16:48;;;;;;;8.25;2.40;;;6.90;99.90;;;;;;5033487;28;20076;-74
2021/03/27 08:19:32;;;;;;;12.07;2.78;;;6.90;99.90;;;;;;5033906;28;20044;-75
2021/03/27 08:22:05;;;;;;;5.60;1.85;;;7.00;99.90;;;;;;5033872;28;20044;-75
2021/03/27 08:24:49;;;;;;;4.60;1.70;;;7.20;99.90;;;;;;5033760;28;20098;-74
2021/03/27 08:27:27;;;;;;;6.68;1.83;;;7.00;99.90;;;;;;5033613;28;20432;-75
2021/03/27 08:30:17;;;;;;;10.85;1.85;;;7.20;99.90;;;;;;5032978;28;20064;-75
2021/03/27 08:32:46;;;;;;;7.32;1.90;;;7.20;99.90;;;;;;5033486;28;20030;-75
2021/03/27 08:35:33;;;;;;;8.70;1.85;;;7.40;99.90;;;;;;5033709;28;20485;-75
2021/03/27 08:38:36;;;;;;;10.23;2.75;;;7.50;99.90;;;;;;5033558;28;20532;-75
2021/03/27 08:41:33;;;;;;;5.78;1.20;;;7.40;99.90;;;;;;5033595;28;20029;-75
2021/03/27 08:44:36;;;;;;;8.95;1.50;;;7.40;99.90;;;;;;5032174;28;20037;-75
2021/03/27 08:47:39;;;;;;;8.77;2.50;;;7.80;99.90;;;;;;5031927;28;20075;-75
2021/03/27 08:50:29;;;;;;;13.73;2.28;;;8.00;99.90;;;;;;5033318;28;20025;-75
2021/03/27 08:53:22;;;;;;;11.10;2.20;;;8.00;99.90;;;;;;5032021;28;20032;-75
2021/03/27 08:55:50;;;;;;;7.43;1.88;;;8.10;99.90;;;;;;5033383;28;20544;-74
2021/03/27 08:58:51;;;;;;;6.32;1.85;;;8.10;99.90;;;;;;5033292;28;20485;-75
2021/03/27 09:01:35;;;;;;;11.35;2.78;;;8.20;99.90;;;;;;5032752;28;20067;-75
2021/03/27 09:04:36;;;;;;;6.65;1.33;;;8.10;99.90;;;;;;5032984;28;20039;-75
2021/03/27 09:07:09;;;;;;;9.80;1.27;;;8.00;99.90;;;;;;5033112;28;20033;-75
2021/03/27 09:10:06;;;;;;;11.50;2.17;;;8.20;99.90;;;;;;5032864;28;20049;-75
2021/03/27 09:13:08;;;;;;;15.00;2.10;;;8.30;99.90;;;;;;5032699;28;20068;-75
2021/03/27 09:15:34;;;;;;;9.07;1.90;;;8.30;99.90;;;;;;5032432;28;20037;-75
2021/03/27 09:18:21;;;;;;;6.03;1.42;;;8.30;99.90;;;;;;5032872;28;20025;-75
2021/03/27 09:21:02;;;;;;;10.77;4.68;;;8.30;99.90;;;;;;5032839;28;20076;-75
2021/03/27 09:23:39;;;;;;;17.15;5.25;;;8.40;99.90;;;;;;5032764;28;20426;-75
2021/03/27 09:26:29;;;;;;;8.02;2.17;;;8.50;99.90;;;;;;5032822;28;20424;-75
2021/03/27 09:29:31;;;;;;;9.73;3.40;;;8.50;99.90;;;;;;5032256;28;20187;-75
2021/03/27 09:32:31;;;;;;;13.43;7.32;;;8.50;99.90;;;;;;5032715;28;20076;-75
2021/03/27 09:35:16;;;;;;;17.90;8.15;;;8.30;99.90;;;;;;5031283;28;20087;-75
2021/03/27 09:38:03;;;;;;;12.13;3.63;;;8.40;99.90;;;;;;5032420;28;20113;-75
2021/03/27 09:40:52;;;;;;;9.63;1.88;;;8.50;99.90;;;;;;5032508;28;20083;-75
2021/03/27 09:43:23;;;;;;;10.50;2.55;;;8.60;99.90;;;;;;5031982;28;20111;-75
2021/03/27 09:46:15;;;;;;;6.75;1.63;;;8.70;99.90;;;;;;5032302;28;20423;-75
2021/03/27 09:49:16;;;;;;;10.75;3.47;;;8.90;99.90;;;;;;4971204;28;20046;-75
2021/03/27 09:51:53;;;;;;;7.63;1.90;;;8.90;99.90;;;;;;4971436;28;20039;-76
2021/03/27 09:54:33;;;;;;;12.23;3.80;;;8.90;99.90;;;;;;4971502;28;20042;-75
2021/03/27 09:57:11;;;;;;;5.80;2.20;;;8.90;99.90;;;;;;4971203;28;20042;-75
2021/03/27 09:59:59;;;;;;;9.48;2.80;;;9.00;99.90;;;;;;4971146;28;20043;-75
2021/03/27 10:02:39;;;;;;;8.13;2.22;;;9.10;99.90;;;;;;4970347;28;20122;-75
2021/03/27 10:05:14;;;;;;;;;;;9.40;99.90;;;;;;4972012;28;20073;-75
2021/03/27 10:07:51;;;;;;;10.38;1.60;;;9.50;99.90;;;;;;4971086;28;19921;-75
2021/03/27 10:10:36;;;;;;;3.33;1.27;;;9.70;99.90;;;;;;4971438;28;20043;-75
2021/03/27 10:13:20;;;;;;;9.70;1.88;;;9.60;99.90;;;;;;4970995;28;20039;-75
2021/03/27 10:15:45;;;;;;;7.32;2.38;;;9.50;99.90;;;;;;4971277;28;20142;-75
2021/03/27 10:18:39;;;;;;;11.65;1.60;;;9.80;99.90;;;;;;4971233;28;20403;-75
2021/03/27 10:21:25;;;;;;;12.35;1.88;;;9.90;99.90;;;;;;4971418;28;20043;-75
2021/03/27 10:24:03;;;;;;;10.60;1.50;;;9.80;99.90;;;;;;4971030;28;20095;-75
2021/03/27 10:26:36;;;;;;;9.07;1.85;;;9.80;99.90;;;;;;5026344;28;20064;-75
2021/03/27 10:29:34;;;;;;;8.00;1.50;;;10.10;99.90;;;;;;5032232;28;20370;-75
2021/03/27 10:32:29;;;;;;;5.07;1.55;;;10.60;99.90;;;;;;5031864;28;20038;-75
2021/03/27 10:35:00;;;;;;;10.25;1.40;;;10.90;99.90;;;;;;5030537;28;20470;-75
2021/03/27 10:37:38;;;;;;;7.05;2.13;;;10.90;99.90;;;;;;5031837;28;20036;-75
2021/03/27 10:40:36;;;;;;;11.23;2.10;;;10.50;97.60;;;;;;5031981;28;20104;-75
2021/03/27 10:43:32;;;;;;;9.52;1.65;;;10.60;94.10;;;;;;5020032;28;20106;-75
2021/03/27 10:46:01;;;;;;;10.65;1.77;;;10.90;99.90;;;;;;5031705;28;20508;-75
2021/03/27 10:48:41;;;;;;;6.90;1.27;;;10.90;93.20;;;;;;5031768;28;20036;-75
2021/03/27 10:51:51;;;;;;;7.70;2.70;;;10.70;92.80;;;;;;5031776;28;20053;-75
2021/03/27 10:54:22;;;;;;;8.35;1.85;;;10.70;92.50;;;;;;5035302;28;20021;-75
2021/03/27 10:57:25;;;;;;;8.23;1.70;;;10.90;83.50;;;;;;5035029;28;20029;-75
2021/03/27 11:00:35;;;;;;;7.93;2.03;;;11.20;85.00;;;;;;5035252;28;20030;-75
2021/03/27 11:03:30;;;;;;;9.35;2.00;;;12.10;88.70;;;;;;5034018;28;20401;-75
2021/03/27 11:05:58;;;;;;;4.78;1.20;;;12.30;85.60;;;;;;5035249;28;20034;-75
2021/03/27 11:08:58;;;;;;;6.38;1.58;;;12.60;83.00;;;;;;5035245;28;20036;-75
2021/03/27 11:12:06;;;;;;;16.20;2.85;;;12.40;81.00;;;;;;5033634;28;20453;-75
2021/03/27 11:15:16;;;;;;;4.75;1.00;;;12.50;85.60;;;;;;4974167;28;20109;-75
2021/03/27 11:18:12;;;;;;;5.78;1.17;;;12.30;78.70;;;;;;4916654;29;20193;-75
2021/03/27 11:21:01;;;;;;;6.07;1.92;;;12.50;76.90;;;;;;4916774;29;20087;-75
2021/03/27 11:23:57;;;;;;;9.32;2.38;;;12.70;79.50;;;;;;4916507;29;20155;-75
2021/03/27 11:27:15;;;;;;;9.25;3.67;;;13.20;77.20;;;;;;4916448;29;20114;-75
2021/03/27 11:30:04;;;;;;;9.48;1.70;;;13.70;77.60;;;;;;4887720;29;20044;-75
2021/03/27 11:32:51;;;;;;;9.45;1.75;;;14.30;73.90;;;;;;4916215;29;20047;-75
2021/03/27 11:35:30;;;;;;;7.30;2.10;;;14.00;66.70;;;;;;4916185;29;20055;-75
2021/03/27 11:38:23;;;;;;;5.80;1.98;;;13.90;65.10;;;;;;4916415;29;20495;-75
2021/03/27 11:41:32;;;;;;;10.60;1.98;;;14.50;68.20;;;;;;4915829;29;20123;-75
2021/03/27 11:44:15;;;;;;;8.52;2.17;;;14.30;65.90;;;;;;4915909;29;20050;-76
2021/03/27 11:47:22;;;;;;;10.60;2.42;;;14.00;66.70;;;;;;4916194;29;20072;-76
2021/03/27 11:49:53;;;;;;;9.30;1.88;;;14.00;70.90;;;;;;4841373;29;20380;-76
2021/03/27 11:52:36;;;;;;;6.60;1.55;;;14.10;68.00;;;;;;4935909;29;20082;-75
2021/03/27 11:55:25;;;;;;;9.70;2.17;;;15.00;72.80;;;;;;4953782;29;20447;-76
2021/03/27 11:58:16;;;;;;;7.85;2.95;;;15.60;70.80;;;;;;4954026;29;20135;-76
2021/03/27 12:01:02;;;;;;;10.10;1.80;;;15.70;69.50;;;;;;4954067;29;20039;-76
2021/03/27 12:04:02;;;;;;;6.07;2.00;;;15.30;62.30;;;;;;4954018;29;20031;-76
2021/03/27 12:06:33;;;;;;;9.82;1.90;;;15.50;67.20;;;;;;4946224;29;20046;-76
2021/03/27 12:09:18;;;;;;;6.55;2.53;;;15.10;62.30;;;;;;4953385;29;20504;-76
2021/03/27 12:11:53;;;;;;;7.22;1.92;;;15.00;70.40;;;;;;4953891;29;20035;-76
2021/03/27 12:14:32;;;;;;;5.53;1.63;;;14.60;67.30;;;;;;4953784;29;20074;-76
2021/03/27 12:17:11;;;;;;;8.93;2.65;;;14.40;66.50;;;;;;4937666;29;20049;-76
2021/03/27 12:19:49;;;;;;;7.30;2.13;;;14.00;72.10;;;;;;4953951;29;20043;-76
2021/03/27 12:22:21;;;;;;;6.28;1.70;;;13.40;71.80;;;;;;4953311;29;20099;-76
2021/03/27 12:25:31;;;;;;;7.47;1.83;;;13.20;73.70;;;;;;5026764;28;20038;-76
2021/03/27 12:28:21;;;;;;;8.65;1.92;;;13.10;70.70;;;;;;4972645;28;20434;-76
2021/03/27 12:31:09;;;;;;;6.78;1.90;;;13.00;74.70;;;;;;4972711;28;20071;-76
2021/03/27 12:34:05;;;;;;;8.35;2.05;;;13.20;73.30;;;;;;4972804;28;20089;-76
2021/03/27 12:36:53;;;;;;;10.50;2.03;;;13.40;69.80;;;;;;4956196;28;20147;-76
2021/03/27 12:39:28;;;;;;;5.60;1.40;;;13.40;70.50;;;;;;4972641;28;20061;-76
2021/03/27 12:41:53;;;;;;;11.93;2.08;;;13.90;69.50;;;;;;4972730;28;20045;-76
2021/03/27 12:44:38;;;;;;;10.65;1.80;;;14.30;72.00;;;;;;4956308;28;20031;-76
2021/03/27 12:47:17;;;;;;;12.13;2.15;;;14.20;69.70;;;;;;4972322;28;20042;-76
2021/03/27 12:50:07;;;;;;;8.50;2.10;;;14.50;72.10;;;;;;4972568;28;20022;-76
2021/03/27 12:52:45;;;;;;;6.43;1.77;;;14.90;70.70;;;;;;4972078;28;20542;-76
2021/03/27 12:55:31;;;;;;;5.28;2.28;;;15.10;70.20;;;;;;4972293;28;20026;-76
2021/03/27 12:58:03;;;;;;;7.05;1.92;;;14.90;67.50;;;;;;4972200;28;20117;-76
2021/03/27 13:00:47;;;;;;;5.70;1.90;;;14.50;72.70;;;;;;4972305;28;20503;-75
2021/03/27 13:03:36;;;;;;;7.50;2.88;;;14.20;69.50;;;;;;4972037;28;20030;-75
2021/03/27 13:06:26;;;;;;;10.32;2.90;;;14.00;73.50;;;;;;5032640;28;20536;-76
2021/03/27 13:09:22;;;;;;;7.72;3.47;;;13.50;72.00;;;;;;5032988;28;20132;-75
2021/03/27 13:12:12;;;;;;;9.50;3.42;;;13.20;70.20;;;;;;5032856;28;20033;-75
2021/03/27 13:14:53;;;;;;;6.57;1.98;;;13.10;76.80;;;;;;5015291;28;20124;-76
2021/03/27 13:17:26;;;;;;;9.35;1.83;;;13.10;75.80;;;;;;5014915;28;20053;-76
2021/03/27 13:20:29;;;;;;;5.35;1.70;;;13.50;70.60;;;;;;5022113;28;20493;-76
2021/03/27 13:23:25;;;;;;;7.60;3.85;;;13.70;71.20;;;;;;5030501;28;20087;-76
2021/03/27 13:26:03;;;;;;;7.22;1.80;;;14.10;69.90;;;;;;5032495;28;20024;-75
2021/03/27 13:28:47;;;;;;;5.78;1.73;;;13.60;71.70;;;;;;5031964;28;20075;-76
2021/03/27 13:31:25;;;;;;;7.57;1.60;;;14.00;71.00;;;;;;5022116;28;20049;-75
2021/03/27 13:34:21;;;;;;;8.13;2.38;;;14.30;71.20;;;;;;5021958;28;20091;-75
2021/03/27 13:37:04;;;;;;;18.83;12.52;;;14.70;68.10;;;;;;5031345;28;20030;-76
2021/03/27 13:39:37;;;;;;;6.95;2.25;;;15.30;67.90;;;;;;5031842;28;20036;-76
2021/03/27 13:42:34;;;;;;;6.57;1.70;;;15.60;62.30;;;;;;5031656;28;20029;-75
2021/03/27 13:45:25;;;;;;;6.78;1.83;;;15.60;61.00;;;;;;5029423;28;20029;-75
2021/03/27 13:48:15;;;;;;;6.45;2.05;;;14.90;65.40;;;;;;5022029;28;20025;-76
2021/03/27 13:50:53;;;;;;;9.45;1.77;;;15.00;62.40;;;;;;5027551;28;20025;-76
2021/03/27 13:53:35;;;;;;;12.10;2.33;;;15.20;64.10;;;;;;5032250;28;20025;-76
2021/03/27 13:56:30;;;;;;;11.07;1.85;;;15.40;64.70;;;;;;5031474;28;20052;-75
2021/03/27 13:59:02;;;;;;;9.05;2.25;;;15.80;62.30;;;;;;5026510;28;20057;-75
2021/03/27 14:01:37;;;;;;;4.63;1.45;;;15.70;62.30;;;;;;5024263;28;20084;-76
2021/03/27 14:04:23;;;;;;;8.05;2.22;;;15.70;65.10;;;;;;5024159;28;20024;-75
2021/03/27 14:07:12;;;;;;;4.45;1.70;;;15.50;60.70;;;;;;5024071;28;20042;-75
2021/03/27 14:09:42;;;;;;;4.90;1.70;;;16.00;62.30;;;;;;5029284;28;20021;-75
2021/03/27 14:12:16;;;;;;;8.63;1.90;;;16.20;60.70;;;;;;5026773;28;20456;-75
2021/03/27 14:15:00;;;;;;;6.43;1.75;;;16.20;59.60;;;;;;5031004;28;20030;-76
2021/03/27 14:17:45;;;;;;;5.22;1.40;;;18.80;56.00;;;;;;5030597;28;20033;-76
2021/03/27 14:20:17;;;;;;;5.80;2.25;;;17.30;54.90;;;;;;5015804;28;20497;-75
2021/03/27 14:23:17;;;;;;;7.68;1.65;;;21.20;52.10;;;;;;5024181;28;20037;-76
2021/03/27 14:26:11;;;;;;;6.32;1.73;;;23.70;48.20;;;;;;5031638;28;20060;-76